Time,TemperatureF,DewpointF,PressureIn,WindDirection,WindDirectionDegrees,WindSpeedMPH,WindSpeedGustMPH,Humidity,HourlyPrecipIn,Conditions,Clouds,dailyrainin,SoftwareType,DateUTC
2013-02-02 00:06:00,43.5,39.3,30.23,North,353,2.0,3.0,85,0.00,,---,0.00,VWS V14.01,2013-02-02 08:06:00,
2013-02-02 00:11:00,43.3,39.1,30.22,North,353,1.0,3.0,85,0.00,,---,0.00,VWS V14.01,2013-02-02 08:11:00,
2013-02-02 00:16:00,43.0,38.5,30.22,North,353,0.0,3.0,84,0.00,,---,0.00,VWS V14.01,2013-02-02 08:16:00,
2013-02-02 00:21:00,42.8,38.6,30.20,North,353,0.0,3.0,85,0.00,,---,0.00,VWS V14.01,2013-02-02 08:21:00,
2013-02-02 00:26:00,42.7,38.5,30.21,North,352,1.0,4.0,85,0.00,,---,0.00,VWS V14.01,2013-02-02 08:26:00,
2013-02-02 00:31:00,42.6,38.7,30.23,North,352,0.0,0.0,86,0.00,,---,0.00,VWS V14.01,2013-02-02 08:31:00,
2013-02-02 00:36:00,42.4,38.5,30.22,North,353,1.0,3.0,86,0.00,,---,0.00,VWS V14.01,2013-02-02 08:36:00,
2013-02-02 00:41:00,42.4,38.5,30.21,North,353,2.0,3.0,86,0.00,,---,0.00,VWS V14.01,2013-02-02 08:41:00,
2013-02-02 00:46:00,42.3,38.4,30.21,North,353,1.0,3.0,86,0.00,,---,0.00,VWS V14.01,2013-02-02 08:46:00,
2013-02-02 00:51:00,42.3,38.7,30.22,North,353,1.0,4.0,87,0.00,,---,0.00,VWS V14.01,2013-02-02 08:51:00,
2013-02-02 00:56:00,42.3,38.7,30.22,North,353,0.0,4.0,87,0.00,,---,0.00,VWS V14.01,2013-02-02 08:56:00,
2013-02-02 01:01:00,42.3,38.7,30.22,North,353,0.0,0.0,87,0.00,,---,0.00,VWS V14.01,2013-02-02 09:01:00,
2013-02-02 01:06:00,42.4,38.8,30.24,North,352,0.0,2.0,87,0.00,,---,0.00,VWS V14.01,2013-02-02 09:06:00,
2013-02-02 01:11:00,42.3,38.7,30.22,North,352,0.0,3.0,87,0.00,,---,0.00,VWS V14.01,2013-02-02 09:11:00,
2013-02-02 01:16:00,42.3,38.7,30.21,North,353,0.0,3.0,87,0.00,,---,0.00,VWS V14.01,2013-02-02 09:16:00,
2013-02-02 01:21:00,42.5,38.9,30.21,North,352,0.0,3.0,87,0.00,,---,0.00,VWS V14.01,2013-02-02 09:21:00,
2013-02-02 01:26:00,42.4,38.8,30.21,North,353,0.0,3.0,87,0.00,,---,0.00,VWS V14.01,2013-02-02 09:26:00,
2013-02-02 01:31:00,42.4,38.8,30.21,North,353,0.0,0.0,87,0.00,,---,0.00,VWS V14.01,2013-02-02 09:31:00,
2013-02-02 01:37:00,42.4,38.8,30.21,North,353,0.0,0.0,87,0.00,,---,0.00,VWS V14.01,2013-02-02 09:37:00,
2013-02-02 01:42:00,42.4,38.8,30.24,North,353,2.0,3.0,87,0.00,,---,0.00,VWS V14.01,2013-02-02 09:42:00,
2013-02-02 01:47:00,42.5,38.9,30.24,North,353,0.0,3.0,87,0.00,,---,0.00,VWS V14.01,2013-02-02 09:47:00,
2013-02-02 01:52:00,42.4,39.1,30.22,North,353,0.0,3.0,88,0.00,,---,0.00,VWS V14.01,2013-02-02 09:52:00,
2013-02-02 01:57:00,42.6,39.3,30.23,North,353,0.0,3.0,88,0.00,,---,0.00,VWS V14.01,2013-02-02 09:57:00,
2013-02-02 02:02:00,42.5,38.9,30.23,North,353,0.0,0.0,87,0.00,,---,0.00,VWS V14.01,2013-02-02 10:02:00,
2013-02-02 02:07:00,42.3,38.7,30.24,North,353,0.0,0.0,87,0.00,,---,0.00,VWS V14.01,2013-02-02 10:07:00,
2013-02-02 02:12:00,42.2,38.6,30.23,North,353,1.0,1.0,87,0.00,,---,0.00,VWS V14.01,2013-02-02 10:12:00,
2013-02-02 02:17:00,42.1,38.5,30.23,North,353,0.0,1.0,87,0.00,,---,0.00,VWS V14.01,2013-02-02 10:17:00,
2013-02-02 02:22:00,41.9,38.3,30.22,North,353,1.0,1.0,87,0.00,,---,0.00,VWS V14.01,2013-02-02 10:22:00,
2013-02-02 02:27:00,41.9,38.3,30.23,North,353,0.0,1.0,87,0.00,,---,0.00,VWS V14.01,2013-02-02 10:27:00,
2013-02-02 02:32:00,41.7,38.1,30.22,North,353,0.0,3.0,87,0.00,,---,0.00,VWS V14.01,2013-02-02 10:32:00,
2013-02-02 02:37:00,41.7,38.1,30.23,North,353,1.0,3.0,87,0.00,,---,0.00,VWS V14.01,2013-02-02 10:37:00,
2013-02-02 02:42:00,41.7,38.4,30.22,North,353,0.0,3.0,88,0.00,,---,0.00,VWS V14.01,2013-02-02 10:42:00,
2013-02-02 02:47:00,41.8,38.5,30.22,North,353,0.0,3.0,88,0.00,,---,0.00,VWS V14.01,2013-02-02 10:47:00,
2013-02-02 02:52:00,41.5,38.2,30.23,North,353,0.0,3.0,88,0.00,,---,0.00,VWS V14.01,2013-02-02 10:52:00,
2013-02-02 02:57:00,41.6,38.0,30.23,North,353,0.0,3.0,87,0.00,,---,0.00,VWS V14.01,2013-02-02 10:57:00,
2013-02-02 03:02:00,41.6,38.3,30.23,North,353,0.0,0.0,88,0.00,,---,0.00,VWS V14.01,2013-02-02 11:02:00,
2013-02-02 03:07:00,41.5,37.9,30.22,North,353,0.0,2.0,87,0.00,,---,0.00,VWS V14.01,2013-02-02 11:07:00,
2013-02-02 03:13:00,41.5,37.9,30.24,North,353,0.0,2.0,87,0.00,,---,0.00,VWS V14.01,2013-02-02 11:13:00,
2013-02-02 03:18:00,41.5,38.2,30.23,North,353,0.0,2.0,88,0.00,,---,0.00,VWS V14.01,2013-02-02 11:18:00,
2013-02-02 03:23:00,41.5,38.2,30.23,North,353,0.0,2.0,88,0.00,,---,0.00,VWS V14.01,2013-02-02 11:23:00,
2013-02-02 03:28:00,41.3,38.0,30.23,North,353,0.0,2.0,88,0.00,,---,0.00,VWS V14.01,2013-02-02 11:28:00,
2013-02-02 03:33:00,41.3,38.0,30.23,North,353,1.0,2.0,88,0.00,,---,0.00,VWS V14.01,2013-02-02 11:33:00,
2013-02-02 03:38:00,41.3,38.0,30.24,North,353,0.0,2.0,88,0.00,,---,0.00,VWS V14.01,2013-02-02 11:38:00,
2013-02-02 03:43:00,41.4,38.1,30.23,North,353,2.0,3.0,88,0.00,,---,0.00,VWS V14.01,2013-02-02 11:43:00,
2013-02-02 03:48:00,41.4,38.4,30.24,North,353,2.0,3.0,89,0.00,,---,0.00,VWS V14.01,2013-02-02 11:48:00,
2013-02-02 03:53:00,41.2,38.2,30.23,North,353,1.0,3.0,89,0.00,,---,0.00,VWS V14.01,2013-02-02 11:53:00,
2013-02-02 03:58:00,41.2,38.2,30.22,North,353,0.0,3.0,89,0.00,,---,0.00,VWS V14.01,2013-02-02 11:58:00,
2013-02-02 04:03:00,41.3,38.3,30.22,North,353,0.0,1.0,89,0.00,,---,0.00,VWS V14.01,2013-02-02 12:03:00,
2013-02-02 04:08:00,41.3,38.0,30.22,North,353,0.0,2.0,88,0.00,,---,0.00,VWS V14.01,2013-02-02 12:08:00,
2013-02-02 04:13:00,41.3,38.3,30.21,North,353,0.0,2.0,89,0.00,,---,0.00,VWS V14.01,2013-02-02 12:13:00,
2013-02-02 04:18:00,41.3,38.3,30.21,North,352,0.0,2.0,89,0.00,,---,0.00,VWS V14.01,2013-02-02 12:18:00,
2013-02-02 04:23:00,41.3,38.3,30.22,North,353,0.0,2.0,89,0.00,,---,0.00,VWS V14.01,2013-02-02 12:23:00,
2013-02-02 04:28:00,41.3,38.3,30.22,North,353,0.0,2.0,89,0.00,,---,0.00,VWS V14.01,2013-02-02 12:28:00,
2013-02-02 04:33:00,41.5,38.8,30.22,North,353,1.0,2.0,90,0.00,,---,0.00,VWS V14.01,2013-02-02 12:33:00,
2013-02-02 04:38:00,41.5,38.8,30.23,North,353,0.0,2.0,90,0.00,,---,0.00,VWS V14.01,2013-02-02 12:38:00,
2013-02-02 04:43:00,41.4,38.7,30.22,North,353,0.0,2.0,90,0.00,,---,0.00,VWS V14.01,2013-02-02 12:43:00,
2013-02-02 04:48:00,41.3,38.3,30.23,North,353,2.0,2.0,89,0.00,,---,0.00,VWS V14.01,2013-02-02 12:48:00,
2013-02-02 04:54:00,41.3,38.3,30.22,North,353,0.0,2.0,89,0.00,,---,0.00,VWS V14.01,2013-02-02 12:54:00,
2013-02-02 04:59:00,41.3,38.3,30.21,North,353,0.0,2.0,89,0.00,,---,0.00,VWS V14.01,2013-02-02 12:59:00,
2013-02-02 05:04:00,41.3,38.3,30.21,North,353,0.0,0.0,89,0.00,,---,0.00,VWS V14.01,2013-02-02 13:04:00,
2013-02-02 05:09:00,41.3,38.3,30.21,North,353,0.0,2.0,89,0.00,,---,0.00,VWS V14.01,2013-02-02 13:09:00,
2013-02-02 05:14:00,41.5,38.8,30.21,North,353,0.0,2.0,90,0.00,,---,0.00,VWS V14.01,2013-02-02 13:14:00,
2013-02-02 05:19:00,41.4,38.4,30.22,North,353,0.0,2.0,89,0.00,,---,0.00,VWS V14.01,2013-02-02 13:19:00,
2013-02-02 05:24:00,41.5,38.5,30.23,North,353,0.0,2.0,89,0.00,,---,0.00,VWS V14.01,2013-02-02 13:24:00,
2013-02-02 05:29:00,41.3,38.3,30.22,North,353,1.0,2.0,89,0.00,,---,0.00,VWS V14.01,2013-02-02 13:29:00,
2013-02-02 05:34:00,41.2,38.2,30.22,North,353,1.0,2.0,89,0.00,,---,0.00,VWS V14.01,2013-02-02 13:34:00,
2013-02-02 05:39:00,41.2,38.2,30.23,North,353,0.0,2.0,89,0.00,,---,0.00,VWS V14.01,2013-02-02 13:39:00,
2013-02-02 05:44:00,41.0,38.0,30.23,North,353,0.0,3.0,89,0.00,,---,0.00,VWS V14.01,2013-02-02 13:44:00,
2013-02-02 05:49:00,40.9,37.9,30.22,North,353,1.0,3.0,89,0.00,,---,0.00,VWS V14.01,2013-02-02 13:49:00,
2013-02-02 05:54:00,40.9,37.9,30.23,North,353,2.0,5.0,89,0.00,,---,0.00,VWS V14.01,2013-02-02 13:54:00,
2013-02-02 05:59:00,40.8,37.8,30.22,North,353,1.0,5.0,89,0.00,,---,0.00,VWS V14.01,2013-02-02 13:59:00,
2013-02-02 06:04:00,40.7,37.7,30.22,North,353,1.0,2.0,89,0.00,,---,0.00,VWS V14.01,2013-02-02 14:04:00,
2013-02-02 06:09:00,40.9,38.2,30.23,North,353,0.0,3.0,90,0.00,,---,0.00,VWS V14.01,2013-02-02 14:09:00,
2013-02-02 06:15:00,41.1,38.4,30.22,North,353,0.0,3.0,90,0.00,,---,0.00,VWS V14.01,2013-02-02 14:15:00,
2013-02-02 06:20:00,41.1,38.4,30.24,North,353,0.0,3.0,90,0.00,,---,0.00,VWS V14.01,2013-02-02 14:20:00,
2013-02-02 06:25:00,41.2,38.5,30.24,North,353,1.0,3.0,90,0.00,,---,0.00,VWS V14.01,2013-02-02 14:25:00,
2013-02-02 06:30:00,41.4,38.7,30.24,North,353,0.0,1.0,90,0.00,,---,0.00,VWS V14.01,2013-02-02 14:30:00,
2013-02-02 06:35:00,41.5,38.8,30.23,North,353,1.0,4.0,90,0.00,,---,0.00,VWS V14.01,2013-02-02 14:35:00,
2013-02-02 06:40:00,41.7,39.3,30.24,North,353,0.0,4.0,91,0.00,,---,0.00,VWS V14.01,2013-02-02 14:40:00,
2013-02-02 06:45:00,41.8,39.4,30.23,North,352,0.0,4.0,91,0.00,,---,0.00,VWS V14.01,2013-02-02 14:45:00,
2013-02-02 06:50:00,41.5,38.8,30.23,North,353,1.0,4.0,90,0.00,,---,0.00,VWS V14.01,2013-02-02 14:50:00,
2013-02-02 06:55:00,41.7,39.0,30.25,North,352,0.0,4.0,90,0.00,,---,0.00,VWS V14.01,2013-02-02 14:55:00,
2013-02-02 07:00:00,41.7,39.0,30.24,North,353,2.0,3.0,90,0.00,,---,0.00,VWS V14.01,2013-02-02 15:00:00,
2013-02-02 07:05:00,41.8,39.1,30.25,North,353,0.0,3.0,90,0.00,,---,0.00,VWS V14.01,2013-02-02 15:05:00,
2013-02-02 07:10:00,41.8,39.1,30.24,North,352,0.0,3.0,90,0.00,,---,0.00,VWS V14.01,2013-02-02 15:10:00,
2013-02-02 07:15:00,41.7,39.0,30.24,North,353,0.0,3.0,90,0.00,,---,0.00,VWS V14.01,2013-02-02 15:15:00,
2013-02-02 07:20:00,41.8,39.1,30.25,North,353,0.0,3.0,90,0.00,,---,0.00,VWS V14.01,2013-02-02 15:20:00,
2013-02-02 07:25:00,41.9,39.2,30.25,North,353,0.0,3.0,90,0.00,,---,0.00,VWS V14.01,2013-02-02 15:25:00,
2013-02-02 07:30:00,41.9,39.2,30.26,North,353,1.0,3.0,90,0.00,,---,0.00,VWS V14.01,2013-02-02 15:30:00,
2013-02-02 07:36:00,42.0,39.3,30.24,North,353,0.0,3.0,90,0.00,,---,0.00,VWS V14.01,2013-02-02 15:36:00,
2013-02-02 07:41:00,42.0,39.6,30.25,North,353,0.0,3.0,91,0.00,,---,0.00,VWS V14.01,2013-02-02 15:41:00,
2013-02-02 07:46:00,42.0,39.6,30.26,North,353,0.0,3.0,91,0.00,,---,0.00,VWS V14.01,2013-02-02 15:46:00,
2013-02-02 07:51:00,42.2,39.8,30.26,North,353,0.0,3.0,91,0.00,,---,0.00,VWS V14.01,2013-02-02 15:51:00,
2013-02-02 07:56:00,42.2,39.8,30.25,North,353,0.0,3.0,91,0.00,,---,0.00,VWS V14.01,2013-02-02 15:56:00,
2013-02-02 08:01:00,42.1,39.7,30.26,North,353,0.0,0.0,91,0.00,,---,0.00,VWS V14.01,2013-02-02 16:01:00,
2013-02-02 08:06:00,42.3,39.9,30.27,North,353,0.0,0.0,91,0.00,,---,0.00,VWS V14.01,2013-02-02 16:06:00,
2013-02-02 08:11:00,42.4,40.0,30.26,North,353,0.0,0.0,91,0.00,,---,0.00,VWS V14.01,2013-02-02 16:11:00,
2013-02-02 08:16:00,42.4,40.0,30.26,North,353,0.0,0.0,91,0.00,,---,0.00,VWS V14.01,2013-02-02 16:16:00,
2013-02-02 08:21:00,42.6,40.2,30.27,North,352,0.0,0.0,91,0.00,,---,0.00,VWS V14.01,2013-02-02 16:21:00,
2013-02-02 08:26:00,42.5,40.1,30.26,North,353,0.0,0.0,91,0.00,,---,0.00,VWS V14.01,2013-02-02 16:26:00,
2013-02-02 08:31:00,42.7,40.3,30.28,North,353,0.0,0.0,91,0.00,,---,0.00,VWS V14.01,2013-02-02 16:31:00,
2013-02-02 08:36:00,42.9,40.5,30.26,North,353,0.0,3.0,91,0.00,,---,0.00,VWS V14.01,2013-02-02 16:36:00,
2013-02-02 08:41:00,43.1,40.9,30.27,North,353,0.0,3.0,92,0.00,,---,0.00,VWS V14.01,2013-02-02 16:41:00,
2013-02-02 08:46:00,43.2,41.0,30.27,North,353,0.0,3.0,92,0.00,,---,0.00,VWS V14.01,2013-02-02 16:46:00,
2013-02-02 08:51:00,43.4,41.2,30.28,North,353,0.0,3.0,92,0.00,,---,0.00,VWS V14.01,2013-02-02 16:51:00,
2013-02-02 08:56:00,43.6,41.4,30.28,North,353,0.0,3.0,92,0.00,,---,0.00,VWS V14.01,2013-02-02 16:56:00,
2013-02-02 09:02:00,44.1,41.9,30.27,North,353,0.0,2.0,92,0.00,,---,0.00,VWS V14.01,2013-02-02 17:02:00,
2013-02-02 09:07:00,44.2,41.7,30.29,North,353,0.0,2.0,91,0.00,,---,0.00,VWS V14.01,2013-02-02 17:07:00,
2013-02-02 09:12:00,44.5,42.0,30.28,North,353,1.0,2.0,91,0.00,,---,0.00,VWS V14.01,2013-02-02 17:12:00,
2013-02-02 09:17:00,44.7,42.2,30.27,North,352,0.0,2.0,91,0.00,,---,0.00,VWS V14.01,2013-02-02 17:17:00,
2013-02-02 09:22:00,44.8,42.3,30.29,North,353,0.0,2.0,91,0.00,,---,0.00,VWS V14.01,2013-02-02 17:22:00,
2013-02-02 09:27:00,44.9,42.2,30.28,North,353,0.0,2.0,90,0.00,,---,0.00,VWS V14.01,2013-02-02 17:27:00,
2013-02-02 09:32:00,45.2,42.5,30.27,North,353,0.0,0.0,90,0.00,,---,0.00,VWS V14.01,2013-02-02 17:32:00,
2013-02-02 09:37:00,45.5,42.7,30.29,North,353,0.0,1.0,90,0.00,,---,0.00,VWS V14.01,2013-02-02 17:37:00,
2013-02-02 09:42:00,45.7,42.7,30.28,North,353,1.0,2.0,89,0.00,,---,0.00,VWS V14.01,2013-02-02 17:42:00,
2013-02-02 09:47:00,46.0,43.0,30.29,North,353,0.0,3.0,89,0.00,,---,0.00,VWS V14.01,2013-02-02 17:47:00,
2013-02-02 09:52:00,46.3,43.2,30.29,North,353,1.0,3.0,89,0.00,,---,0.00,VWS V14.01,2013-02-02 17:52:00,
2013-02-02 09:57:00,46.5,43.1,30.27,North,353,0.0,3.0,88,0.00,,---,0.00,VWS V14.01,2013-02-02 17:57:00,
2013-02-02 10:02:00,46.7,43.3,30.26,North,353,0.0,1.0,88,0.00,,---,0.00,VWS V14.01,2013-02-02 18:02:00,
2013-02-02 10:08:00,47.2,43.8,30.26,North,0,0.0,2.0,88,0.00,,---,0.00,VWS V14.01,2013-02-02 18:08:00,
2013-02-02 10:13:00,47.4,44.0,30.27,North,0,0.0,2.0,88,0.00,,---,0.00,VWS V14.01,2013-02-02 18:13:00,
2013-02-02 10:18:00,47.7,44.0,30.28,North,0,0.0,3.0,87,0.00,,---,0.00,VWS V14.01,2013-02-02 18:18:00,
2013-02-02 10:23:00,48.2,44.2,30.29,North,0,0.0,3.0,86,0.00,,---,0.00,VWS V14.01,2013-02-02 18:23:00,
2013-02-02 10:28:00,48.3,44.3,30.29,North,0,0.0,3.0,86,0.00,,---,0.00,VWS V14.01,2013-02-02 18:28:00,
2013-02-02 10:33:00,48.6,44.3,30.28,North,0,0.0,2.0,85,0.00,,---,0.00,VWS V14.01,2013-02-02 18:33:00,
2013-02-02 10:38:00,48.9,44.6,30.28,North,0,1.0,2.0,85,0.00,,---,0.00,VWS V14.01,2013-02-02 18:38:00,
2013-02-02 10:43:00,49.2,44.6,30.28,North,0,0.0,2.0,84,0.00,,---,0.00,VWS V14.01,2013-02-02 18:43:00,
2013-02-02 10:48:00,49.5,44.9,30.28,North,0,0.0,2.0,84,0.00,,---,0.00,VWS V14.01,2013-02-02 18:48:00,
2013-02-02 10:53:00,49.8,44.8,30.29,North,0,2.0,2.0,83,0.00,,---,0.00,VWS V14.01,2013-02-02 18:53:00,
2013-02-02 10:58:00,50.2,45.2,30.28,North,0,0.0,2.0,83,0.00,,---,0.00,VWS V14.01,2013-02-02 18:58:00,
2013-02-02 11:03:00,50.5,45.2,30.27,North,359,0.0,1.0,82,0.00,,---,0.00,VWS V14.01,2013-02-02 19:03:00,
2013-02-02 11:08:00,50.7,45.4,30.27,North,0,0.0,2.0,82,0.00,,---,0.00,VWS V14.01,2013-02-02 19:08:00,
2013-02-02 11:13:00,50.9,45.6,30.28,North,0,1.0,2.0,82,0.00,,---,0.00,VWS V14.01,2013-02-02 19:13:00,
2013-02-02 11:18:00,51.1,45.8,30.28,North,0,1.0,2.0,82,0.00,,---,0.00,VWS V14.01,2013-02-02 19:18:00,
2013-02-02 11:24:00,51.5,45.9,30.28,North,0,0.0,3.0,81,0.00,,---,0.00,VWS V14.01,2013-02-02 19:24:00,
2013-02-02 11:29:00,51.9,45.9,30.29,North,359,0.0,3.0,80,0.00,,---,0.00,VWS V14.01,2013-02-02 19:29:00,
2013-02-02 11:34:00,52.2,45.9,30.29,North,0,2.0,2.0,79,0.00,,---,0.00,VWS V14.01,2013-02-02 19:34:00,
2013-02-02 11:39:00,52.3,46.0,30.27,North,0,0.0,2.0,79,0.00,,---,0.00,VWS V14.01,2013-02-02 19:39:00,
2013-02-02 11:44:00,52.6,46.3,30.26,North,0,0.0,2.0,79,0.00,,---,0.00,VWS V14.01,2013-02-02 19:44:00,
2013-02-02 11:49:00,52.9,46.6,30.26,North,0,0.0,2.0,79,0.00,,---,0.00,VWS V14.01,2013-02-02 19:49:00,
2013-02-02 11:54:00,53.0,46.7,30.26,North,0,0.0,2.0,79,0.00,,---,0.00,VWS V14.01,2013-02-02 19:54:00,
2013-02-02 11:59:00,53.3,46.6,30.27,North,0,0.0,2.0,78,0.00,,---,0.00,VWS V14.01,2013-02-02 19:59:00,
2013-02-02 12:04:00,53.7,46.3,30.25,North,0,0.0,2.0,76,0.00,,---,0.00,VWS V14.01,2013-02-02 20:04:00,
2013-02-02 12:09:00,54.2,46.5,30.26,North,0,0.0,2.0,75,0.00,,---,0.00,VWS V14.01,2013-02-02 20:09:00,
2013-02-02 12:14:00,54.8,47.0,30.25,North,0,0.0,2.0,75,0.00,,---,0.00,VWS V14.01,2013-02-02 20:14:00,
2013-02-02 12:19:00,55.2,47.1,30.25,North,0,2.0,4.0,74,0.00,,---,0.00,VWS V14.01,2013-02-02 20:19:00,
2013-02-02 12:24:00,55.6,47.1,30.26,North,359,1.0,4.0,73,0.00,,---,0.00,VWS V14.01,2013-02-02 20:24:00,
2013-02-02 12:29:00,56.1,47.6,30.26,North,0,0.0,5.0,73,0.00,,---,0.00,VWS V14.01,2013-02-02 20:29:00,
2013-02-02 12:34:00,56.4,47.9,30.24,North,0,0.0,2.0,73,0.00,,---,0.00,VWS V14.01,2013-02-02 20:34:00,
2013-02-02 12:39:00,56.8,47.5,30.24,North,0,0.0,3.0,71,0.00,,---,0.00,VWS V14.01,2013-02-02 20:39:00,
2013-02-02 12:44:00,57.3,47.6,30.24,North,0,1.0,4.0,70,0.00,,---,0.00,VWS V14.01,2013-02-02 20:44:00,
2013-02-02 12:50:00,57.8,48.1,30.24,North,0,1.0,5.0,70,0.00,,---,0.00,VWS V14.01,2013-02-02 20:50:00,
2013-02-02 12:55:00,58.0,48.3,30.23,North,0,0.0,5.0,70,0.00,,---,0.00,VWS V14.01,2013-02-02 20:55:00,
2013-02-02 13:00:00,58.4,47.9,30.24,North,0,1.0,2.0,68,0.00,,---,0.00,VWS V14.01,2013-02-02 21:00:00,
2013-02-02 13:05:00,58.6,48.5,30.24,North,0,1.0,3.0,69,0.00,,---,0.00,VWS V14.01,2013-02-02 21:05:00,
2013-02-02 13:10:00,59.0,48.9,30.24,North,0,1.0,4.0,69,0.00,,---,0.00,VWS V14.01,2013-02-02 21:10:00,
2013-02-02 13:15:00,59.1,48.6,30.21,North,0,0.0,5.0,68,0.00,,---,0.00,VWS V14.01,2013-02-02 21:15:00,
2013-02-02 13:20:00,59.6,48.6,30.23,North,0,1.0,5.0,67,0.00,,---,0.00,VWS V14.01,2013-02-02 21:20:00,
2013-02-02 13:25:00,59.7,48.7,30.22,North,0,0.0,5.0,67,0.00,,---,0.00,VWS V14.01,2013-02-02 21:25:00,
2013-02-02 13:30:00,59.9,48.5,30.20,North,0,2.0,3.0,66,0.00,,---,0.00,VWS V14.01,2013-02-02 21:30:00,
2013-02-02 13:35:00,60.2,48.4,30.22,North,0,0.0,4.0,65,0.00,,---,0.00,VWS V14.01,2013-02-02 21:35:00,
2013-02-02 13:40:00,60.2,48.8,30.23,North,1,0.0,5.0,66,0.00,,---,0.00,VWS V14.01,2013-02-02 21:40:00,
2013-02-02 13:45:00,60.4,49.4,30.22,North,1,1.0,5.0,67,0.00,,---,0.00,VWS V14.01,2013-02-02 21:45:00,
2013-02-02 13:50:00,60.5,49.1,30.21,North,1,1.0,5.0,66,0.00,,---,0.00,VWS V14.01,2013-02-02 21:50:00,
2013-02-02 13:55:00,60.9,49.5,30.19,North,1,0.0,5.0,66,0.00,,---,0.00,VWS V14.01,2013-02-02 21:55:00,
2013-02-02 14:01:00,61.1,48.8,30.22,North,1,3.0,4.0,64,0.00,,---,0.00,VWS V14.01,2013-02-02 22:01:00,
2013-02-02 14:06:00,61.3,49.5,30.23,North,1,1.0,4.0,65,0.00,,---,0.00,VWS V14.01,2013-02-02 22:06:00,
2013-02-02 14:11:00,61.4,49.1,30.22,North,1,1.0,4.0,64,0.00,,---,0.00,VWS V14.01,2013-02-02 22:11:00,
2013-02-02 14:16:00,61.8,49.9,30.20,North,1,1.0,4.0,65,0.00,,---,0.00,VWS V14.01,2013-02-02 22:16:00,
2013-02-02 14:21:00,61.7,49.4,30.22,North,1,2.0,4.0,64,0.00,,---,0.00,VWS V14.01,2013-02-02 22:21:00,
2013-02-02 14:26:00,61.6,49.3,30.21,North,1,3.0,4.0,64,0.00,,---,0.00,VWS V14.01,2013-02-02 22:26:00,
2013-02-02 14:31:00,61.6,49.3,30.21,North,1,0.0,1.0,64,0.00,,---,0.00,VWS V14.01,2013-02-02 22:31:00,
2013-02-02 14:36:00,61.6,49.3,30.20,North,1,1.0,2.0,64,0.00,,---,0.00,VWS V14.01,2013-02-02 22:36:00,
2013-02-02 14:41:00,61.6,49.3,30.19,North,1,1.0,3.0,64,0.00,,---,0.00,VWS V14.01,2013-02-02 22:41:00,
2013-02-02 14:46:00,61.6,49.3,30.20,North,1,1.0,3.0,64,0.00,,---,0.00,VWS V14.01,2013-02-02 22:46:00,
2013-02-02 14:51:00,61.6,49.3,30.20,North,1,0.0,3.0,64,0.00,,---,0.00,VWS V14.01,2013-02-02 22:51:00,
2013-02-02 14:56:00,61.8,49.1,30.20,North,1,1.0,3.0,63,0.00,,---,0.00,VWS V14.01,2013-02-02 22:56:00,
2013-02-02 15:01:00,61.8,49.5,30.22,North,1,0.0,0.0,64,0.00,,---,0.00,VWS V14.01,2013-02-02 23:01:00,
2013-02-02 15:06:00,61.9,49.6,30.21,North,1,0.0,2.0,64,0.00,,---,0.00,VWS V14.01,2013-02-02 23:06:00,
2013-02-02 15:12:00,62.1,50.2,30.22,North,1,0.0,3.0,65,0.00,,---,0.00,VWS V14.01,2013-02-02 23:12:00,
2013-02-02 15:17:00,62.1,50.2,30.21,North,1,0.0,3.0,65,0.00,,---,0.00,VWS V14.01,2013-02-02 23:17:00,
2013-02-02 15:22:00,62.2,50.3,30.20,North,1,1.0,4.0,65,0.00,,---,0.00,VWS V14.01,2013-02-02 23:22:00,
2013-02-02 15:27:00,62.4,50.5,30.19,North,1,0.0,4.0,65,0.00,,---,0.00,VWS V14.01,2013-02-02 23:27:00,
2013-02-02 15:32:00,62.4,50.1,30.22,North,1,1.0,2.0,64,0.00,,---,0.00,VWS V14.01,2013-02-02 23:32:00,
2013-02-02 15:37:00,62.5,50.2,30.21,North,1,2.0,4.0,64,0.00,,---,0.00,VWS V14.01,2013-02-02 23:37:00,
2013-02-02 15:42:00,62.4,50.1,30.19,North,1,2.0,4.0,64,0.00,,---,0.00,VWS V14.01,2013-02-02 23:42:00,
2013-02-02 15:47:00,62.2,49.9,30.19,North,1,0.0,4.0,64,0.00,,---,0.00,VWS V14.01,2013-02-02 23:47:00,
2013-02-02 15:52:00,62.1,49.8,30.23,North,1,1.0,4.0,64,0.00,,---,0.00,VWS V14.01,2013-02-02 23:52:00,
2013-02-02 15:57:00,62.0,50.1,30.21,North,1,1.0,4.0,65,0.00,,---,0.00,VWS V14.01,2013-02-02 23:57:00,
2013-02-02 16:02:00,61.8,49.9,30.21,North,1,1.0,4.0,65,0.00,,---,0.00,VWS V14.01,2013-02-03 00:02:00,
2013-02-02 16:07:00,61.4,49.5,30.21,North,1,0.0,4.0,65,0.00,,---,0.00,VWS V14.01,2013-02-03 00:07:00,
2013-02-02 16:12:00,60.8,49.4,30.23,North,1,4.0,5.0,66,0.00,,---,0.00,VWS V14.01,2013-02-03 00:12:00,
2013-02-02 16:17:00,60.0,49.0,30.20,North,1,5.0,5.0,67,0.00,,---,0.00,VWS V14.01,2013-02-03 00:17:00,
2013-02-02 16:23:00,59.3,48.8,30.22,North,1,2.0,5.0,68,0.00,,---,0.00,VWS V14.01,2013-02-03 00:23:00,
2013-02-02 16:28:00,58.7,48.6,30.19,North,1,0.0,5.0,69,0.00,,---,0.00,VWS V14.01,2013-02-03 00:28:00,
2013-02-02 16:33:00,58.2,48.5,30.19,North,1,3.0,3.0,70,0.00,,---,0.00,VWS V14.01,2013-02-03 00:33:00,
2013-02-02 16:38:00,57.9,48.6,30.22,North,1,5.0,5.0,71,0.00,,---,0.00,VWS V14.01,2013-02-03 00:38:00,
2013-02-02 16:43:00,57.6,48.3,30.19,North,1,1.0,5.0,71,0.00,,---,0.00,VWS V14.01,2013-02-03 00:43:00,
2013-02-02 16:48:00,57.3,48.0,30.23,North,1,0.0,5.0,71,0.00,,---,0.00,VWS V14.01,2013-02-03 00:48:00,
2013-02-02 16:53:00,57.0,48.1,30.20,North,1,0.0,5.0,72,0.00,,---,0.00,VWS V14.01,2013-02-03 00:53:00,
2013-02-02 16:58:00,56.5,48.0,30.22,North,0,2.0,5.0,73,0.00,,---,0.00,VWS V14.01,2013-02-03 00:58:00,
2013-02-02 17:03:00,56.2,47.7,30.20,North,0,2.0,6.0,73,0.00,,---,0.00,VWS V14.01,2013-02-03 01:03:00,
2013-02-02 17:08:00,55.8,47.7,30.22,North,359,2.0,6.0,74,0.00,,---,0.00,VWS V14.01,2013-02-03 01:08:00,
2013-02-02 17:13:00,55.4,47.3,30.21,North,358,1.0,6.0,74,0.00,,---,0.00,VWS V14.01,2013-02-03 01:13:00,
2013-02-02 17:18:00,55.0,47.2,30.21,North,358,3.0,6.0,75,0.00,,---,0.00,VWS V14.01,2013-02-03 01:18:00,
2013-02-02 17:23:00,54.7,46.9,30.20,North,358,2.0,6.0,75,0.00,,---,0.00,VWS V14.01,2013-02-03 01:23:00,
2013-02-02 17:28:00,54.5,47.1,30.18,North,358,3.0,6.0,76,0.00,,---,0.00,VWS V14.01,2013-02-03 01:28:00,
2013-02-02 17:33:00,54.2,46.8,30.22,North,354,2.0,5.0,76,0.00,,---,0.00,VWS V14.01,2013-02-03 01:33:00,
2013-02-02 17:38:00,53.9,46.5,30.21,North,354,2.0,5.0,76,0.00,,---,0.00,VWS V14.01,2013-02-03 01:38:00,
2013-02-02 17:43:00,53.7,46.7,30.22,North,354,2.0,5.0,77,0.00,,---,0.00,VWS V14.01,2013-02-03 01:43:00,
2013-02-02 17:48:00,53.5,46.5,30.22,North,354,2.0,5.0,77,0.00,,---,0.00,VWS V14.01,2013-02-03 01:48:00,
2013-02-02 17:54:00,53.3,46.3,30.20,North,355,2.0,5.0,77,0.00,,---,0.00,VWS V14.01,2013-02-03 01:54:00,
2013-02-02 17:59:00,53.0,46.3,30.21,North,354,1.0,5.0,78,0.00,,---,0.00,VWS V14.01,2013-02-03 01:59:00,
2013-02-02 18:04:00,52.9,46.6,30.20,North,354,1.0,3.0,79,0.00,,---,0.00,VWS V14.01,2013-02-03 02:04:00,
2013-02-02 18:09:00,52.7,46.4,30.21,North,355,2.0,4.0,79,0.00,,---,0.00,VWS V14.01,2013-02-03 02:09:00,
2013-02-02 18:14:00,52.6,46.3,30.23,North,354,1.0,4.0,79,0.00,,---,0.00,VWS V14.01,2013-02-03 02:14:00,
2013-02-02 18:19:00,52.3,46.0,30.21,North,354,2.0,4.0,79,0.00,,---,0.00,VWS V14.01,2013-02-03 02:19:00,
2013-02-02 18:24:00,52.1,46.1,30.23,North,354,2.0,4.0,80,0.00,,---,0.00,VWS V14.01,2013-02-03 02:24:00,
2013-02-02 18:29:00,52.0,46.0,30.22,North,354,2.0,4.0,80,0.00,,---,0.00,VWS V14.01,2013-02-03 02:29:00,
2013-02-02 18:34:00,51.8,46.2,30.23,North,354,1.0,5.0,81,0.00,,---,0.00,VWS V14.01,2013-02-03 02:34:00,
2013-02-02 18:39:00,51.9,46.3,30.22,North,354,0.0,5.0,81,0.00,,---,0.00,VWS V14.01,2013-02-03 02:39:00,
2013-02-02 18:44:00,51.7,46.1,30.21,North,354,0.0,5.0,81,0.00,,---,0.00,VWS V14.01,2013-02-03 02:44:00,
2013-02-02 18:49:00,51.6,46.0,30.21,North,354,2.0,5.0,81,0.00,,---,0.00,VWS V14.01,2013-02-03 02:49:00,
2013-02-02 18:54:00,51.5,45.9,30.23,North,354,4.0,5.0,81,0.00,,---,0.00,VWS V14.01,2013-02-03 02:54:00,
2013-02-02 18:59:00,51.5,45.9,30.22,North,354,1.0,5.0,81,0.00,,---,0.00,VWS V14.01,2013-02-03 02:59:00,
2013-02-02 19:04:00,51.3,45.7,30.20,North,354,2.0,5.0,81,0.00,,---,0.00,VWS V14.01,2013-02-03 03:04:00,
2013-02-02 19:10:00,51.2,45.9,30.23,North,354,2.0,5.0,82,0.00,,---,0.00,VWS V14.01,2013-02-03 03:10:00,
2013-02-02 19:15:00,50.9,45.6,30.22,North,354,0.0,5.0,82,0.00,,---,0.00,VWS V14.01,2013-02-03 03:15:00,
2013-02-02 19:20:00,51.0,45.7,30.23,North,354,1.0,5.0,82,0.00,,---,0.00,VWS V14.01,2013-02-03 03:20:00,
2013-02-02 19:25:00,50.9,45.6,30.22,North,354,2.0,5.0,82,0.00,,---,0.00,VWS V14.01,2013-02-03 03:25:00,
2013-02-02 19:30:00,50.8,45.5,30.23,North,354,1.0,1.0,82,0.00,,---,0.00,VWS V14.01,2013-02-03 03:30:00,
2013-02-02 19:35:00,50.8,45.5,30.20,North,354,1.0,3.0,82,0.00,,---,0.00,VWS V14.01,2013-02-03 03:35:00,
2013-02-02 19:40:00,50.5,45.2,30.22,North,354,0.0,3.0,82,0.00,,---,0.00,VWS V14.01,2013-02-03 03:40:00,
2013-02-02 19:45:00,50.6,45.3,30.24,North,354,0.0,3.0,82,0.00,,---,0.00,VWS V14.01,2013-02-03 03:45:00,
2013-02-02 19:50:00,50.4,45.1,30.21,North,354,1.0,3.0,82,0.00,,---,0.00,VWS V14.01,2013-02-03 03:50:00,
2013-02-02 19:55:00,50.1,44.8,30.22,North,354,0.0,3.0,82,0.00,,---,0.00,VWS V14.01,2013-02-03 03:55:00,
2013-02-02 20:00:00,49.8,44.5,30.22,North,354,1.0,2.0,82,0.00,,---,0.00,VWS V14.01,2013-02-03 04:00:00,
2013-02-02 20:05:00,49.5,44.6,30.23,North,354,1.0,3.0,83,0.00,,---,0.00,VWS V14.01,2013-02-03 04:05:00,
2013-02-02 20:10:00,49.4,44.5,30.21,North,354,1.0,3.0,83,0.00,,---,0.00,VWS V14.01,2013-02-03 04:10:00,
2013-02-02 20:15:00,49.2,44.3,30.23,North,354,0.0,3.0,83,0.00,,---,0.00,VWS V14.01,2013-02-03 04:15:00,
2013-02-02 20:21:00,49.0,44.1,30.23,North,354,0.0,3.0,83,0.00,,---,0.00,VWS V14.01,2013-02-03 04:21:00,
2013-02-02 20:26:00,48.8,43.6,30.22,North,354,1.0,3.0,82,0.00,,---,0.00,VWS V14.01,2013-02-03 04:26:00,
2013-02-02 20:31:00,48.4,43.5,30.23,North,354,0.0,1.0,83,0.00,,---,0.00,VWS V14.01,2013-02-03 04:31:00,
2013-02-02 20:36:00,48.4,43.5,30.22,North,354,2.0,2.0,83,0.00,,---,0.00,VWS V14.01,2013-02-03 04:36:00,
2013-02-02 20:41:00,48.2,43.3,30.22,North,354,1.0,4.0,83,0.00,,---,0.00,VWS V14.01,2013-02-03 04:41:00,
2013-02-02 20:46:00,48.1,43.5,30.23,North,354,2.0,4.0,84,0.00,,---,0.00,VWS V14.01,2013-02-03 04:46:00,
2013-02-02 20:51:00,48.0,43.7,30.24,North,354,0.0,4.0,85,0.00,,---,0.00,VWS V14.01,2013-02-03 04:51:00,
2013-02-02 20:56:00,48.2,44.2,30.22,North,354,1.0,4.0,86,0.00,,---,0.00,VWS V14.01,2013-02-03 04:56:00,
2013-02-02 21:00:00,48.3,44.3,30.23,North,354,2.0,4.0,86,0.00,,---,0.00,VWS V14.01,2013-02-03 05:00:00,
2013-02-02 21:01:00,48.2,44.2,30.20,North,354,0.0,3.0,86,0.00,,---,0.00,VWS V14.01,2013-02-03 05:01:00,
2013-02-02 21:03:00,48.2,44.5,30.22,North,354,2.0,4.0,87,0.00,,---,0.00,VWS V14.01,2013-02-03 05:03:00,
2013-02-02 21:08:00,48.1,44.1,30.22,North,354,0.0,4.0,86,0.00,,---,0.00,VWS V14.01,2013-02-03 05:08:00,
2013-02-02 21:14:00,48.0,44.3,30.20,North,354,2.0,4.0,87,0.00,,---,0.00,VWS V14.01,2013-02-03 05:14:00,
2013-02-02 21:19:00,48.2,44.5,30.23,North,354,4.0,4.0,87,0.00,,---,0.00,VWS V14.01,2013-02-03 05:19:00,
2013-02-02 21:24:00,48.0,44.0,30.21,North,354,2.0,4.0,86,0.00,,---,0.00,VWS V14.01,2013-02-03 05:24:00,
2013-02-02 21:29:00,47.9,43.9,30.24,North,354,2.0,4.0,86,0.00,,---,0.00,VWS V14.01,2013-02-03 05:29:00,
2013-02-02 21:34:00,47.7,43.7,30.23,North,354,2.0,4.0,86,0.00,,---,0.00,VWS V14.01,2013-02-03 05:34:00,
2013-02-02 21:39:00,47.6,43.9,30.23,North,354,3.0,5.0,87,0.00,,---,0.00,VWS V14.01,2013-02-03 05:39:00,
2013-02-02 21:44:00,47.6,44.2,30.22,North,354,4.0,5.0,88,0.00,,---,0.00,VWS V14.01,2013-02-03 05:44:00,
2013-02-02 21:49:00,47.6,44.2,30.22,North,354,4.0,5.0,88,0.00,,---,0.00,VWS V14.01,2013-02-03 05:49:00,
2013-02-02 21:54:00,47.7,44.6,30.22,North,354,1.0,5.0,89,0.00,,---,0.00,VWS V14.01,2013-02-03 05:54:00,
2013-02-02 21:59:00,47.5,44.4,30.21,North,354,3.0,5.0,89,0.00,,---,0.00,VWS V14.01,2013-02-03 05:59:00,
2013-02-02 22:04:00,47.6,44.5,30.23,North,354,2.0,5.0,89,0.00,,---,0.00,VWS V14.01,2013-02-03 06:04:00,
2013-02-02 22:09:00,47.6,44.5,30.23,North,354,3.0,6.0,89,0.00,,---,0.00,VWS V14.01,2013-02-03 06:09:00,
2013-02-02 22:14:00,47.6,44.5,30.22,North,354,3.0,6.0,89,0.00,,---,0.00,VWS V14.01,2013-02-03 06:14:00,
2013-02-02 22:19:00,47.6,44.5,30.21,North,354,0.0,6.0,89,0.00,,---,0.00,VWS V14.01,2013-02-03 06:19:00,
2013-02-02 22:24:00,47.6,44.2,30.24,North,354,0.0,6.0,88,0.00,,---,0.00,VWS V14.01,2013-02-03 06:24:00,
2013-02-02 22:30:00,47.4,44.0,30.23,North,354,0.0,6.0,88,0.00,,---,0.00,VWS V14.01,2013-02-03 06:30:00,
2013-02-02 22:35:00,47.4,44.0,30.23,North,354,0.0,0.0,88,0.00,,---,0.00,VWS V14.01,2013-02-03 06:35:00,
2013-02-02 22:40:00,47.4,43.7,30.23,North,354,0.0,0.0,87,0.00,,---,0.00,VWS V14.01,2013-02-03 06:40:00,
2013-02-02 22:45:00,47.0,43.0,30.23,North,354,0.0,0.0,86,0.00,,---,0.00,VWS V14.01,2013-02-03 06:45:00,
2013-02-02 22:50:00,46.7,42.7,30.24,North,354,0.0,0.0,86,0.00,,---,0.00,VWS V14.01,2013-02-03 06:50:00,
2013-02-02 22:55:00,46.4,42.5,30.25,North,354,0.0,1.0,86,0.00,,---,0.00,VWS V14.01,2013-02-03 06:55:00,
2013-02-02 23:00:00,46.2,42.0,30.23,North,354,0.0,0.0,85,0.00,,---,0.00,VWS V14.01,2013-02-03 07:00:00,
2013-02-02 23:05:00,45.7,41.8,30.22,North,354,0.0,0.0,86,0.00,,---,0.00,VWS V14.01,2013-02-03 07:05:00,
2013-02-02 23:10:00,45.4,41.5,30.24,North,354,0.0,0.0,86,0.00,,---,0.00,VWS V14.01,2013-02-03 07:10:00,
2013-02-02 23:15:00,45.0,41.1,30.25,North,354,0.0,0.0,86,0.00,,---,0.00,VWS V14.01,2013-02-03 07:15:00,
2013-02-02 23:20:00,44.8,40.9,30.24,North,354,0.0,0.0,86,0.00,,---,0.00,VWS V14.01,2013-02-03 07:20:00,
2013-02-02 23:25:00,44.5,40.6,30.23,North,354,0.0,0.0,86,0.00,,---,0.00,VWS V14.01,2013-02-03 07:25:00,
2013-02-02 23:30:00,44.2,40.3,30.24,North,354,0.0,0.0,86,0.00,,---,0.00,VWS V14.01,2013-02-03 07:30:00,
2013-02-02 23:35:00,43.8,39.9,30.23,North,354,0.0,2.0,86,0.00,,---,0.00,VWS V14.01,2013-02-03 07:35:00,
2013-02-02 23:40:00,43.6,39.7,30.23,North,354,0.0,2.0,86,0.00,,---,0.00,VWS V14.01,2013-02-03 07:40:00,
2013-02-02 23:45:00,43.5,39.9,30.24,North,354,0.0,2.0,87,0.00,,---,0.00,VWS V14.01,2013-02-03 07:45:00,
2013-02-02 23:50:00,43.3,39.7,30.23,North,354,1.0,3.0,87,0.00,,---,0.00,VWS V14.01,2013-02-03 07:50:00,
2013-02-02 23:55:00,43.0,39.4,30.23,North,354,0.0,3.0,87,0.00,,---,0.00,VWS V14.01,2013-02-03 07:55:00,